Time;durP1;ratioP1;P1;durP2;ratioP2;P2;SDS_P1;SDS_P2;PMS_P1;PMS_P2;Temp;Humidity;BMP_temperature;BMP_pressure;BME280_temperature;BME280_humidity;BME280_pressure;Samples;Min_cycle;Max_cycle;Signal;HPM_P1;HPM_P2
2021/12/20 00:00:20;;;;;;;11.55;2.78;;;10.90;91.60;;;;;;4900845;29;20027;-76
2021/12/20 00:02:50;;;;;;;12.93;2.88;;;10.90;91.50;;;;;;4916513;29;20520;-76
2021/12/20 00:05:15;;;;;;;15.00;2.90;;;10.90;91.60;;;;;;4900419;29;20492;-76
2021/12/20 00:07:41;;;;;;;9.60;2.78;;;10.90;91.60;;;;;;4917495;29;20028;-76
2021/12/20 00:10:07;;;;;;;9.15;3.08;;;10.90;91.60;;;;;;4917985;29;20402;-76
2021/12/20 00:12:33;;;;;;;10.82;2.90;;;10.90;91.60;;;;;;4916300;29;20591;-75
2021/12/20 00:14:59;;;;;;;11.07;2.88;;;10.90;91.60;;;;;;4916175;29;20111;-76
2021/12/20 00:17:25;;;;;;;17.58;3.25;;;10.90;91.50;;;;;;4916189;29;20055;-76
2021/12/20 00:19:50;;;;;;;11.30;2.78;;;10.90;91.50;;;;;;4916261;29;20028;-76
2021/12/20 00:22:16;;;;;;;10.70;3.25;;;10.90;91.50;;;;;;4916175;29;20043;-76
2021/12/20 00:24:42;;;;;;;14.77;3.40;;;10.90;91.50;;;;;;4916044;29;20032;-76
2021/12/20 00:27:09;;;;;;;11.52;2.78;;;10.90;91.50;;;;;;4917304;29;20035;-76
2021/12/20 00:29:35;;;;;;;11.27;2.70;;;10.90;91.50;;;;;;4916090;29;20024;-76
2021/12/20 00:32:01;;;;;;;14.68;3.28;;;10.90;91.50;;;;;;4917161;29;20028;-76
2021/12/20 00:34:26;;;;;;;13.35;3.53;;;10.90;91.50;;;;;;4915719;29;20027;-75
2021/12/20 00:37:01;;;;;;;11.38;2.67;;;10.90;91.60;;;;;;4915996;29;20032;-76
2021/12/20 00:40:20;;;;;;;11.95;2.90;;;10.90;91.50;;;;;;4915965;29;20118;-76
2021/12/20 00:42:15;;;;;;;10.45;2.70;;;10.90;91.60;;;;;;4916919;29;20028;-76
2021/12/20 00:44:41;;;;;;;10.88;3.58;;;10.90;91.60;;;;;;4916720;29;20032;-75
2021/12/20 00:47:06;;;;;;;12.90;2.95;;;10.90;91.60;;;;;;4915596;29;20079;-76
2021/12/20 00:49:32;;;;;;;11.30;3.03;;;10.90;91.60;;;;;;4915541;29;20039;-76
2021/12/20 00:51:58;;;;;;;10.55;2.80;;;10.90;91.50;;;;;;4916904;29;20025;-75
2021/12/20 00:54:24;;;;;;;13.32;3.25;;;10.90;91.40;;;;;;4899693;29;20088;-76
2021/12/20 00:56:50;;;;;;;11.07;2.83;;;10.90;91.50;;;;;;4915477;29;20115;-76
2021/12/20 00:59:15;;;;;;;12.68;3.38;;;10.90;91.50;;;;;;4899749;29;20639;-75
2021/12/20 01:01:41;;;;;;;11.68;2.83;;;10.90;91.50;;;;;;4915174;29;20032;-75
2021/12/20 01:04:07;;;;;;;13.27;2.97;;;10.90;91.50;;;;;;4916390;29;20024;-77
2021/12/20 01:06:32;;;;;;;14.13;3.38;;;10.90;91.40;;;;;;4915510;29;20034;-76
2021/12/20 01:08:58;;;;;;;11.48;3.08;;;10.90;91.50;;;;;;4914821;29;20506;-76
2021/12/20 01:11:26;;;;;;;13.25;2.70;;;10.90;91.50;;;;;;4899654;29;20046;-75
2021/12/20 01:13:53;;;;;;;15.38;3.13;;;10.90;91.40;;;;;;4899381;29;20021;-76
2021/12/20 01:16:29;;;;;;;13.52;3.00;;;10.90;91.40;;;;;;4916313;29;20024;-75
2021/12/20 01:18:54;;;;;;;14.63;3.05;;;10.90;91.40;;;;;;4915453;29;20084;-76
2021/12/20 01:21:20;;;;;;;11.13;2.80;;;10.90;91.40;;;;;;4916634;29;20031;-76
2021/12/20 01:23:45;;;;;;;11.25;3.03;;;10.90;91.40;;;;;;4914993;29;20040;-77
2021/12/20 01:26:11;;;;;;;11.55;3.05;;;10.90;91.40;;;;;;4915054;29;20056;-77
2021/12/20 01:28:37;;;;;;;14.95;3.42;;;10.80;91.40;;;;;;4916153;29;20115;-76
2021/12/20 01:31:02;;;;;;;10.73;2.85;;;10.80;91.40;;;;;;4916184;29;20051;-76
2021/12/20 01:33:28;;;;;;;11.13;2.90;;;10.90;91.40;;;;;;4899151;29;20031;-78
2021/12/20 01:35:56;;;;;;;11.85;3.10;;;10.80;91.30;;;;;;4915068;29;20056;-77
2021/12/20 01:38:22;;;;;;;11.82;2.53;;;10.90;91.40;;;;;;4916078;29;20020;-76
2021/12/20 01:40:48;;;;;;;12.65;3.10;;;10.90;91.40;;;;;;4915098;29;20032;-76
2021/12/20 01:43:15;;;;;;;13.32;3.00;;;10.80;91.30;;;;;;4916169;29;20079;-77
2021/12/20 01:45:40;;;;;;;12.15;3.08;;;10.80;91.30;;;;;;4915956;29;20024;-76
2021/12/20 01:48:09;;;;;;;12.57;3.10;;;10.80;91.30;;;;;;4898982;29;20036;-77
2021/12/20 01:53:12;;;;;;;13.15;3.10;;;10.80;91.30;;;;;;4916369;29;20024;-76
2021/12/20 01:55:38;;;;;;;10.88;2.80;;;10.80;91.30;;;;;;4915891;29;20543;-77
2021/12/20 01:58:04;;;;;;;12.82;2.90;;;10.80;91.30;;;;;;4899093;29;20072;-76
2021/12/20 02:00:30;;;;;;;12.90;3.20;;;10.80;91.20;;;;;;4914690;29;20060;-76
2021/12/20 02:03:02;;;;;;;13.68;2.75;;;10.80;91.10;;;;;;4916027;29;20036;-76
2021/12/20 02:08:41;;;;;;;12.98;3.72;;;10.90;91.20;;;;;;4916043;29;20044;-76
2021/12/20 02:11:03;;;;;;;14.43;3.28;;;10.80;91.20;;;;;;4912910;29;20039;-77
2021/12/20 02:13:30;;;;;;;11.93;3.00;;;10.80;91.20;;;;;;4915640;29;20021;-76
2021/12/20 02:15:57;;;;;;;12.15;3.28;;;10.80;91.20;;;;;;4914788;29;20118;-76
2021/12/20 02:18:23;;;;;;;14.50;3.67;;;10.80;91.10;;;;;;4914608;29;20067;-76
2021/12/20 02:20:49;;;;;;;12.63;2.92;;;10.80;91.20;;;;;;4916529;29;20028;-76
2021/12/20 02:23:15;;;;;;;10.32;2.83;;;10.80;91.20;;;;;;4902503;29;20134;-76
2021/12/20 02:25:40;;;;;;;11.23;3.28;;;10.80;91.10;;;;;;4918013;29;20107;-76
2021/12/20 02:28:10;;;;;;;15.15;3.38;;;10.80;91.10;;;;;;4919365;29;20108;-76
2021/12/20 02:38:36;;;;;;;12.80;3.83;;;10.80;91.00;;;;;;4919343;29;20035;-77
2021/12/20 02:41:12;;;;;;;13.52;3.50;;;10.80;91.10;;;;;;4917940;29;20028;-77
2021/12/20 02:43:42;;;;;;;14.30;3.22;;;10.80;91.00;;;;;;4918921;29;20028;-77
2021/12/20 02:46:29;;;;;;;14.25;3.05;;;10.90;91.10;;;;;;4917760;29;20032;-76
2021/12/20 02:48:55;;;;;;;14.27;3.20;;;10.80;91.00;;;;;;4917959;29;20381;-76
2021/12/20 02:51:24;;;;;;;9.60;3.40;;;10.80;91.00;;;;;;4917814;29;20028;-77
2021/12/20 02:53:50;;;;;;;14.55;3.38;;;10.80;91.00;;;;;;4917635;29;20024;-76
2021/12/20 02:56:16;;;;;;;12.52;3.53;;;10.80;91.00;;;;;;4917806;29;20036;-76
2021/12/20 02:58:42;;;;;;;11.95;3.08;;;10.80;91.00;;;;;;4917708;29;20118;-76
2021/12/20 03:01:08;;;;;;;12.70;4.20;;;10.80;91.00;;;;;;4918581;29;20024;-76
2021/12/20 03:03:34;;;;;;;11.30;3.13;;;10.80;90.90;;;;;;4901763;29;20032;-76
2021/12/20 03:06:06;;;;;;;11.98;3.75;;;10.80;91.30;;;;;;4901609;29;20028;-76
2021/12/20 03:08:31;;;;;;;12.98;3.45;;;10.80;91.20;;;;;;4955579;23;20039;-79
2021/12/20 03:10:57;;;;;;;13.80;3.22;;;10.90;91.10;;;;;;4939715;29;20025;-80
2021/12/20 03:13:23;;;;;;;14.10;4.03;;;10.90;91.00;;;;;;4939513;29;20550;-79
2021/12/20 03:15:48;;;;;;;14.07;3.22;;;10.90;91.10;;;;;;4935271;29;20562;-80
2021/12/20 03:18:14;;;;;;;12.23;3.75;;;10.90;91.00;;;;;;4937450;28;20496;-80
2021/12/20 03:20:41;;;;;;;15.13;3.33;;;10.90;91.00;;;;;;4958660;28;20035;-80
2021/12/20 03:23:06;;;;;;;14.25;2.92;;;10.90;91.00;;;;;;4958911;28;20449;-79
2021/12/20 03:25:32;;;;;;;13.32;3.65;;;10.90;91.00;;;;;;4958473;28;20027;-80
2021/12/20 03:27:57;;;;;;;11.52;3.38;;;10.90;91.00;;;;;;4958629;28;20046;-80
2021/12/20 03:30:25;;;;;;;13.88;3.50;;;10.90;91.00;;;;;;4958524;28;20486;-79
2021/12/20 03:32:50;;;;;;;12.73;3.30;;;10.90;90.90;;;;;;4958093;28;20030;-80
2021/12/20 03:35:16;;;;;;;13.07;3.38;;;10.90;90.90;;;;;;4958318;28;20022;-80
2021/12/20 03:37:41;;;;;;;11.05;3.47;;;10.90;90.90;;;;;;4975865;28;20037;-80
2021/12/20 03:40:08;;;;;;;12.35;3.60;;;10.90;90.90;;;;;;4958410;28;20030;-80
2021/12/20 03:42:34;;;;;;;13.02;3.30;;;10.90;90.90;;;;;;4958385;28;20030;-80
2021/12/20 03:45:00;;;;;;;13.70;3.70;;;10.90;90.90;;;;;;4957976;28;20042;-80
2021/12/20 03:47:25;;;;;;;13.63;3.90;;;10.90;90.80;;;;;;4975367;28;20489;-79
2021/12/20 03:49:51;;;;;;;13.25;3.70;;;10.90;90.90;;;;;;4958166;28;20058;-80
2021/12/20 03:52:16;;;;;;;14.85;3.92;;;10.90;90.90;;;;;;4958217;28;20030;-80
2021/12/20 03:54:42;;;;;;;13.20;3.88;;;10.90;90.90;;;;;;4975277;28;20033;-80
2021/12/20 03:57:07;;;;;;;14.43;3.58;;;10.90;90.90;;;;;;4958111;28;20030;-79
2021/12/20 03:59:34;;;;;;;11.82;3.80;;;10.90;90.90;;;;;;4957693;28;20030;-80
2021/12/20 04:02:00;;;;;;;12.55;4.03;;;10.80;90.80;;;;;;4975300;28;20031;-80
2021/12/20 04:04:25;;;;;;;12.18;3.70;;;10.90;90.90;;;;;;4957664;28;20494;-80
2021/12/20 04:06:51;;;;;;;11.50;4.00;;;10.80;90.80;;;;;;4957858;28;20465;-80
2021/12/20 04:09:17;;;;;;;13.60;4.03;;;10.80;90.90;;;;;;4957848;28;20031;-80
2021/12/20 04:11:43;;;;;;;14.00;4.00;;;10.80;91.00;;;;;;4957853;28;20382;-80
2021/12/20 04:14:08;;;;;;;14.65;4.50;;;10.80;91.10;;;;;;4957556;28;20041;-80
2021/12/20 04:16:36;;;;;;;15.48;3.97;;;10.80;91.10;;;;;;4957650;28;20031;-80
2021/12/20 04:19:02;;;;;;;13.43;4.30;;;10.80;91.20;;;;;;4957664;28;20119;-80
2021/12/20 04:21:27;;;;;;;13.98;4.03;;;10.80;91.40;;;;;;4957632;28;20034;-80
2021/12/20 04:23:53;;;;;;;15.25;4.65;;;10.70;91.20;;;;;;4957409;28;20031;-80
2021/12/20 04:26:18;;;;;;;14.63;4.43;;;10.70;91.50;;;;;;4957444;28;20379;-79
2021/12/20 04:28:44;;;;;;;14.13;4.60;;;10.70;91.20;;;;;;4957456;28;20114;-79
2021/12/20 04:31:10;;;;;;;13.57;4.47;;;10.70;91.30;;;;;;4957302;28;20022;-79
2021/12/20 04:33:35;;;;;;;12.38;4.70;;;10.70;91.30;;;;;;4957163;28;20371;-80
2021/12/20 04:36:01;;;;;;;14.38;4.45;;;10.70;91.30;;;;;;4974887;28;20030;-80
2021/12/20 04:38:29;;;;;;;13.95;4.50;;;10.70;91.30;;;;;;4957227;28;20537;-79
2021/12/20 04:40:54;;;;;;;18.60;5.53;;;10.70;91.20;;;;;;4957431;28;20027;-80
2021/12/20 04:43:20;;;;;;;15.05;4.80;;;10.70;91.30;;;;;;4956371;28;20409;-79
2021/12/20 04:45:46;;;;;;;12.20;4.45;;;10.70;91.20;;;;;;4956976;28;20023;-79
2021/12/20 04:48:11;;;;;;;14.13;4.97;;;10.70;91.20;;;;;;4957185;28;20031;-80
2021/12/20 04:50:38;;;;;;;14.75;4.97;;;10.70;91.30;;;;;;4957174;28;20027;-78
2021/12/20 04:53:04;;;;;;;16.52;5.78;;;10.70;91.30;;;;;;4956958;28;20023;-80
2021/12/20 04:55:31;;;;;;;14.63;4.88;;;10.70;91.30;;;;;;4974408;28;20158;-80
2021/12/20 04:57:58;;;;;;;14.63;5.43;;;10.70;91.30;;;;;;4974355;28;20097;-80
2021/12/20 05:00:29;;;;;;;12.48;4.63;;;10.70;91.30;;;;;;4956446;28;20046;-79
2021/12/20 05:02:55;;;;;;;13.80;4.93;;;10.70;91.30;;;;;;4957086;28;20026;-79
2021/12/20 05:05:21;;;;;;;15.15;5.07;;;10.70;91.30;;;;;;4956630;28;20034;-79
2021/12/20 05:07:47;;;;;;;14.52;5.15;;;10.70;91.30;;;;;;4956638;28;20037;-79
2021/12/20 05:10:26;;;;;;;12.10;5.10;;;10.70;91.30;;;;;;4956788;28;20050;-79
2021/12/20 05:13:00;;;;;;;15.18;5.45;;;10.80;91.30;;;;;;4956758;28;20031;-80
2021/12/20 05:15:26;;;;;;;12.43;4.93;;;10.70;91.30;;;;;;4970197;28;20034;-79
2021/12/20 05:17:52;;;;;;;12.00;4.72;;;10.70;91.30;;;;;;4937339;29;20027;-80
2021/12/20 05:20:17;;;;;;;14.93;5.45;;;10.70;91.20;;;;;;4937453;29;20505;-79
2021/12/20 05:22:44;;;;;;;15.05;5.63;;;10.70;91.20;;;;;;4937459;29;20078;-80
2021/12/20 05:25:10;;;;;;;13.57;5.50;;;10.70;91.20;;;;;;4937218;29;20031;-80
2021/12/20 05:27:36;;;;;;;15.38;5.57;;;10.70;91.20;;;;;;4937231;29;20439;-80
2021/12/20 05:30:03;;;;;;;15.68;5.57;;;10.70;91.20;;;;;;4937335;29;20105;-80
2021/12/20 05:32:29;;;;;;;13.05;5.43;;;10.70;91.20;;;;;;4934700;29;20054;-81
2021/12/20 05:34:55;;;;;;;13.43;5.25;;;10.70;91.20;;;;;;4933926;29;20117;-80
2021/12/20 09:08:21;;;;;;;8.77;5.47;;;10.70;90.50;;;;;;4603895;23;20337;-80
2021/12/20 09:10:47;;;;;;;9.07;5.45;;;10.80;90.40;;;;;;4916297;29;20091;-76
2021/12/20 09:13:13;;;;;;;10.60;5.13;;;10.80;90.40;;;;;;4918039;29;20483;-77
2021/12/20 09:15:38;;;;;;;8.75;5.30;;;10.80;90.30;;;;;;4917712;29;20391;-76
2021/12/20 09:18:06;;;;;;;8.68;5.00;;;10.80;90.30;;;;;;4934761;29;20078;-77
2021/12/20 09:20:32;;;;;;;8.05;4.93;;;10.90;90.40;;;;;;4917921;29;20032;-76
2021/12/20 09:23:04;;;;;;;9.50;5.13;;;10.80;90.30;;;;;;4934926;29;20035;-77
2021/12/20 09:25:31;;;;;;;8.25;4.88;;;10.90;90.20;;;;;;4917579;29;20031;-77
2021/12/20 09:27:57;;;;;;;8.60;5.45;;;10.90;90.40;;;;;;4934687;29;20039;-78
2021/12/20 09:30:26;;;;;;;8.18;4.97;;;10.90;90.20;;;;;;4917472;29;20033;-77
2021/12/20 09:32:51;;;;;;;8.18;5.00;;;10.90;90.20;;;;;;4917613;29;20078;-77
2021/12/20 09:35:17;;;;;;;8.30;4.70;;;10.90;90.10;;;;;;4934497;29;20111;-77
2021/12/20 09:37:45;;;;;;;8.75;4.90;;;10.90;90.10;;;;;;4917520;29;20034;-76
2021/12/20 09:40:13;;;;;;;8.15;4.80;;;11.00;90.20;;;;;;4934746;29;20163;-76
2021/12/20 09:42:48;;;;;;;8.73;4.35;;;11.00;90.10;;;;;;4917665;29;20039;-77
2021/12/20 09:45:17;;;;;;;7.80;4.72;;;11.00;90.10;;;;;;4917453;29;20027;-76
2021/12/20 09:47:44;;;;;;;7.85;4.75;;;11.00;90.00;;;;;;4917407;29;20031;-76
2021/12/20 09:50:11;;;;;;;8.35;5.20;;;11.00;90.00;;;;;;4917890;29;20665;-76
2021/12/20 09:52:37;;;;;;;8.25;5.13;;;10.90;89.60;;;;;;4917544;29;20027;-76
2021/12/20 09:55:03;;;;;;;8.05;5.00;;;10.90;89.50;;;;;;4917275;29;20024;-76
2021/12/20 09:57:30;;;;;;;8.18;4.60;;;10.90;89.60;;;;;;4934421;29;20028;-76
2021/12/20 09:59:57;;;;;;;8.10;5.18;;;10.90;89.60;;;;;;4934585;29;20035;-76
2021/12/20 10:02:22;;;;;;;8.52;4.88;;;10.90;89.80;;;;;;4934599;29;20037;-76
2021/12/20 10:04:48;;;;;;;7.78;4.65;;;10.90;89.80;;;;;;4917322;29;20495;-76
2021/12/20 10:07:18;;;;;;;8.23;4.60;;;10.90;89.80;;;;;;4917425;29;20051;-77
2021/12/20 10:09:47;;;;;;;8.52;5.07;;;10.90;90.00;;;;;;4917411;29;20380;-76
2021/12/20 10:12:16;;;;;;;7.20;4.75;;;10.90;90.00;;;;;;4917283;29;20024;-76
2021/12/20 10:15:15;;;;;;;7.30;4.50;;;10.90;90.00;;;;;;4917046;29;20384;-75
2021/12/20 10:17:55;;;;;;;7.43;4.90;;;10.90;89.80;;;;;;4876825;29;20064;-76
2021/12/20 10:20:26;;;;;;;7.40;4.93;;;10.90;89.80;;;;;;4917271;29;20028;-76
2021/12/20 10:22:53;;;;;;;8.88;4.85;;;10.90;89.70;;;;;;4917325;29;20062;-76
2021/12/20 10:25:26;;;;;;;8.10;4.60;;;10.90;89.80;;;;;;4917064;29;20026;-76
2021/12/20 10:27:52;;;;;;;8.07;5.25;;;10.90;89.80;;;;;;4917120;29;20024;-76
2021/12/20 10:30:30;;;;;;;7.43;4.72;;;11.00;89.70;;;;;;4917376;29;20096;-76
2021/12/20 10:32:57;;;;;;;6.97;4.40;;;11.00;89.60;;;;;;4917169;29;20035;-76
2021/12/20 10:35:36;;;;;;;7.25;4.32;;;11.00;89.60;;;;;;4917141;29;20023;-76
2021/12/20 10:38:07;;;;;;;7.15;4.68;;;11.00;89.40;;;;;;4934194;29;20082;-76
2021/12/20 10:40:34;;;;;;;8.85;4.70;;;10.90;89.20;;;;;;4934248;29;20111;-77
2021/12/20 10:43:05;;;;;;;8.23;4.88;;;11.00;89.30;;;;;;4919149;29;20040;-76
2021/12/20 10:45:31;;;;;;;7.40;4.35;;;11.00;89.20;;;;;;4937798;29;20395;-76
2021/12/20 10:48:08;;;;;;;7.20;4.45;;;11.00;89.60;;;;;;4920458;29;20030;-75
2021/12/20 10:50:42;;;;;;;7.05;4.35;;;11.00;89.00;;;;;;4920585;29;20373;-75
2021/12/20 10:53:15;;;;;;;8.88;5.10;;;11.00;89.10;;;;;;4937504;29;20015;-75
2021/12/20 10:55:50;;;;;;;7.07;4.35;;;11.00;89.00;;;;;;4937410;29;20427;-75
2021/12/20 10:58:28;;;;;;;7.20;4.55;;;11.00;88.80;;;;;;4920282;29;20032;-76
2021/12/20 11:01:14;;;;;;;7.35;4.45;;;11.00;88.80;;;;;;4937363;29;20059;-76
2021/12/20 11:03:42;;;;;;;7.85;4.43;;;11.00;88.80;;;;;;4920044;29;20023;-75
2021/12/20 11:11:27;;;;;;;7.70;4.30;;;11.00;88.60;;;;;;4937570;29;20107;-75
2021/12/20 11:13:53;;;;;;;6.75;4.25;;;11.10;88.30;;;;;;4920104;29;20118;-76
2021/12/20 11:16:33;;;;;;;8.02;4.50;;;11.20;88.00;;;;;;4936968;29;20384;-76
2021/12/20 11:19:18;;;;;;;7.45;4.35;;;11.30;88.10;;;;;;4937185;29;20091;-76
2021/12/20 11:21:52;;;;;;;6.70;3.80;;;11.40;87.10;;;;;;4937141;29;20028;-76
2021/12/20 11:24:23;;;;;;;6.93;4.22;;;11.40;87.00;;;;;;4919615;29;20027;-76
2021/12/20 11:26:50;;;;;;;7.82;4.80;;;11.50;86.70;;;;;;4936856;29;20479;-75
2021/12/20 11:29:16;;;;;;;8.23;4.50;;;11.50;86.50;;;;;;4919893;29;20448;-75
2021/12/20 11:31:42;;;;;;;7.75;4.80;;;11.50;86.30;;;;;;4920030;29;20024;-77
2021/12/20 11:34:07;;;;;;;6.80;3.90;;;11.60;86.20;;;;;;4919482;29;20024;-78
2021/12/20 11:36:33;;;;;;;7.22;4.22;;;11.60;86.10;;;;;;4919912;29;20083;-77
2021/12/20 11:38:59;;;;;;;6.55;3.90;;;11.60;85.90;;;;;;4919535;29;20032;-77
2021/12/20 11:41:26;;;;;;;7.05;3.80;;;11.60;86.40;;;;;;4936848;29;20032;-76
2021/12/20 11:43:53;;;;;;;7.00;4.20;;;11.60;85.70;;;;;;4936556;29;20102;-77
2021/12/20 11:46:21;;;;;;;9.52;4.70;;;11.70;85.70;;;;;;4936472;29;20036;-75
2021/12/20 11:48:49;;;;;;;7.25;4.43;;;11.70;85.60;;;;;;4936494;29;20079;-77
2021/12/20 11:51:14;;;;;;;7.35;4.22;;;11.70;85.60;;;;;;4919386;29;20391;-77
2021/12/20 11:53:40;;;;;;;8.68;4.60;;;11.70;85.60;;;;;;4935770;29;20034;-77
2021/12/20 11:56:07;;;;;;;7.07;4.40;;;11.70;85.70;;;;;;4919397;29;20032;-76
2021/12/20 11:58:33;;;;;;;7.82;4.80;;;11.70;85.60;;;;;;4936925;29;20472;-76
2021/12/20 12:01:05;;;;;;;8.18;4.72;;;11.70;85.70;;;;;;4915759;29;20403;-76
2021/12/20 12:03:36;;;;;;;8.18;5.60;;;11.70;84.20;;;;;;4902059;29;20035;-75
2021/12/20 12:06:07;;;;;;;8.10;4.20;;;11.60;84.50;;;;;;4900790;29;20095;-76
2021/12/20 12:08:52;;;;;;;7.93;4.28;;;11.70;84.90;;;;;;4917444;29;20264;-75
2021/12/20 12:11:17;;;;;;;8.38;4.32;;;11.60;85.10;;;;;;4900612;29;20042;-75
2021/12/20 12:13:47;;;;;;;7.63;4.32;;;11.70;85.40;;;;;;4900334;29;20024;-77
2021/12/20 12:16:28;;;;;;;7.40;4.45;;;11.60;85.40;;;;;;4900617;29;20028;-75
2021/12/20 12:18:55;;;;;;;10.65;4.93;;;11.70;85.50;;;;;;4900590;29;20606;-76
2021/12/20 12:21:33;;;;;;;7.40;4.68;;;11.60;85.50;;;;;;4910990;23;20040;-80
2021/12/20 12:24:08;;;;;;;7.18;4.38;;;11.70;85.50;;;;;;4939665;29;20022;-78
2021/12/20 12:26:56;;;;;;;8.20;4.50;;;11.70;85.50;;;;;;4952345;29;20570;-78
2021/12/20 12:29:23;;;;;;;6.63;4.28;;;11.70;85.50;;;;;;4919698;29;20035;-78
2021/12/20 12:31:49;;;;;;;7.65;4.15;;;11.80;85.50;;;;;;4930961;23;20054;-79
2021/12/20 12:34:15;;;;;;;9.10;4.53;;;11.70;85.40;;;;;;4935864;29;20028;-78
2021/12/20 12:36:42;;;;;;;8.30;4.63;;;11.80;85.40;;;;;;4935791;29;20099;-78
2021/12/20 12:39:28;;;;;;;7.55;4.65;;;11.80;85.40;;;;;;4935751;29;20031;-78
2021/12/20 12:42:01;;;;;;;8.43;4.68;;;11.80;85.40;;;;;;4935858;29;20027;-78
2021/12/20 12:44:34;;;;;;;6.75;4.50;;;11.80;85.40;;;;;;4920826;29;20027;-79
2021/12/20 12:47:08;;;;;;;7.38;4.18;;;11.80;85.40;;;;;;4941775;29;20086;-81
2021/12/20 12:49:38;;;;;;;7.70;4.38;;;11.80;85.40;;;;;;4939394;29;20027;-81
2021/12/20 12:52:05;;;;;;;7.72;4.40;;;11.80;85.40;;;;;;4939991;29;20028;-79
2021/12/20 12:54:42;;;;;;;7.95;4.28;;;11.80;85.30;;;;;;4938647;29;20023;-80
2021/12/20 13:00:32;;;;;;;7.82;4.63;;;11.80;85.00;;;;;;4926241;29;20156;-79
2021/12/20 13:03:09;;;;;;;7.50;4.50;;;11.90;85.10;;;;;;4954419;29;20486;-79
2021/12/20 13:05:37;;;;;;;8.80;4.97;;;11.80;85.00;;;;;;4961443;28;20554;-79
2021/12/20 13:08:03;;;;;;;7.28;4.38;;;11.80;84.90;;;;;;4961427;29;20028;-80
2021/12/20 13:10:38;;;;;;;8.55;5.05;;;11.80;84.10;;;;;;4963521;29;20019;-80
2021/12/20 13:13:27;;;;;;;8.30;5.32;;;11.80;82.30;;;;;;4961759;29;20023;-80
2021/12/20 13:15:57;;;;;;;11.00;5.47;;;11.80;81.20;;;;;;4962428;29;20034;-80
2021/12/20 13:18:35;;;;;;;9.68;5.18;;;11.70;81.30;;;;;;4962266;29;20082;-81
2021/12/20 13:21:04;;;;;;;7.35;4.47;;;11.70;81.70;;;;;;4961775;29;20051;-80
2021/12/20 13:23:46;;;;;;;10.25;4.85;;;11.60;82.20;;;;;;4961463;29;20380;-80
2021/12/20 13:26:17;;;;;;;11.00;5.55;;;11.60;82.80;;;;;;4962727;29;20404;-80
2021/12/20 13:28:44;;;;;;;8.80;4.65;;;11.60;83.20;;;;;;4961427;29;20121;-77
2021/12/20 13:31:16;;;;;;;9.98;4.93;;;11.60;83.50;;;;;;4942095;29;20485;-81
2021/12/20 13:33:51;;;;;;;8.18;4.75;;;11.60;83.70;;;;;;4938999;29;20529;-79
2021/12/20 13:36:21;;;;;;;8.13;4.60;;;11.60;84.10;;;;;;4941175;29;20035;-79
2021/12/20 13:38:50;;;;;;;7.70;4.65;;;11.60;84.30;;;;;;4940950;29;20380;-80
2021/12/20 13:41:20;;;;;;;8.35;4.38;;;11.60;84.50;;;;;;4939408;29;20031;-80
2021/12/20 13:43:49;;;;;;;8.13;4.80;;;11.50;84.70;;;;;;4940752;29;20050;-79
2021/12/20 13:46:23;;;;;;;7.78;4.40;;;11.60;85.00;;;;;;4938196;29;20176;-79
2021/12/20 13:49:05;;;;;;;7.82;4.60;;;11.60;85.00;;;;;;4937818;29;20024;-80
2021/12/20 13:51:51;;;;;;;8.23;4.47;;;11.60;84.80;;;;;;4938515;29;20051;-79
2021/12/20 13:54:37;;;;;;;8.82;4.78;;;11.70;84.70;;;;;;4937813;29;20057;-80
2021/12/20 13:57:19;;;;;;;9.32;4.20;;;11.70;84.70;;;;;;4939913;29;20027;-79
2021/12/20 13:59:50;;;;;;;8.18;4.45;;;11.70;84.60;;;;;;4939599;29;20506;-80
2021/12/20 14:02:22;;;;;;;8.15;4.40;;;11.70;84.50;;;;;;4934092;29;20042;-80
2021/12/20 14:04:50;;;;;;;7.82;4.38;;;11.70;84.50;;;;;;4935681;29;20031;-77
2021/12/20 14:07:32;;;;;;;7.53;4.65;;;11.70;84.50;;;;;;4936870;29;20055;-79
2021/12/20 14:10:08;;;;;;;7.60;3.78;;;11.70;84.70;;;;;;4939138;29;20055;-79
2021/12/20 14:12:39;;;;;;;7.82;3.70;;;11.60;84.60;;;;;;4936746;29;20020;-79
2021/12/20 14:15:07;;;;;;;7.40;4.15;;;11.60;84.70;;;;;;4936357;29;20055;-79
2021/12/20 14:17:58;;;;;;;6.97;4.00;;;11.60;84.70;;;;;;4939055;29;20119;-79
2021/12/20 14:20:41;;;;;;;8.07;3.40;;;11.60;84.90;;;;;;4941523;29;20028;-79
2021/12/20 14:23:29;;;;;;;7.90;3.83;;;11.60;85.00;;;;;;4940582;29;20435;-79
2021/12/20 14:26:09;;;;;;;6.40;3.42;;;11.60;85.00;;;;;;4930876;29;20048;-79
2021/12/20 14:28:39;;;;;;;7.67;3.67;;;11.50;85.10;;;;;;4939264;29;20039;-79
2021/12/20 14:31:06;;;;;;;7.57;3.95;;;11.50;85.20;;;;;;4938683;29;20036;-79
2021/12/20 14:33:36;;;;;;;6.60;3.65;;;11.50;85.40;;;;;;4938985;29;20115;-79
2021/12/20 14:36:09;;;;;;;7.72;3.60;;;11.40;85.50;;;;;;4941091;29;20491;-80
2021/12/20 14:38:39;;;;;;;7.13;3.80;;;11.40;85.80;;;;;;4939048;29;20479;-80
2021/12/20 14:41:11;;;;;;;5.68;3.30;;;11.30;86.00;;;;;;4937833;29;20024;-80
2021/12/20 14:43:41;;;;;;;6.88;3.35;;;11.30;86.20;;;;;;4937717;29;20032;-80
2021/12/20 14:46:09;;;;;;;6.63;3.40;;;11.30;86.30;;;;;;4951262;29;20360;-81
2021/12/20 14:48:45;;;;;;;6.38;3.22;;;11.30;86.40;;;;;;4949295;29;20122;-81
2021/12/20 14:51:16;;;;;;;8.13;3.80;;;11.20;86.60;;;;;;4949332;29;20044;-80
2021/12/20 14:53:41;;;;;;;5.82;2.92;;;11.20;86.70;;;;;;4948694;29;20373;-79
2021/12/20 14:56:10;;;;;;;6.55;3.17;;;11.20;86.70;;;;;;4947503;29;20076;-79
2021/12/20 14:58:35;;;;;;;7.18;3.08;;;11.10;86.70;;;;;;4946645;29;20561;-80
2021/12/20 15:01:02;;;;;;;7.97;3.22;;;11.10;86.80;;;;;;4944465;29;20027;-81
2021/12/20 15:03:28;;;;;;;18.45;3.85;;;11.10;86.90;;;;;;4942455;29;20024;-81
2021/12/20 15:06:08;;;;;;;33.83;4.60;;;11.10;84.80;;;;;;4939892;29;20023;-80
2021/12/20 15:08:33;;;;;;;17.27;3.90;;;11.10;84.70;;;;;;4938505;29;20041;-79
2021/12/20 15:10:59;;;;;;;20.25;4.55;;;11.10;85.20;;;;;;4938975;29;20492;-81
2021/12/20 15:13:24;;;;;;;23.98;4.40;;;11.10;85.40;;;;;;4939376;29;20024;-80
2021/12/20 15:15:50;;;;;;;18.33;4.65;;;11.10;85.30;;;;;;4938422;29;20104;-80
2021/12/20 15:18:15;;;;;;;20.73;4.10;;;11.10;85.40;;;;;;4939768;29;20513;-81
2021/12/20 15:20:41;;;;;;;19.00;4.50;;;11.20;85.30;;;;;;4938317;29;20488;-81
2021/12/20 15:23:07;;;;;;;13.88;3.95;;;11.20;85.30;;;;;;4937909;29;20035;-81
2021/12/20 15:25:32;;;;;;;20.92;4.20;;;11.20;85.20;;;;;;4937329;29;20070;-77
2021/12/20 15:27:58;;;;;;;22.67;4.35;;;11.10;85.10;;;;;;4935062;29;20110;-80
2021/12/20 15:30:24;;;;;;;13.25;4.32;;;11.20;85.00;;;;;;4937895;29;20107;-80
2021/12/20 15:32:52;;;;;;;15.25;3.78;;;11.20;84.50;;;;;;4936798;29;20039;-81
2021/12/20 15:35:18;;;;;;;16.77;4.10;;;11.20;84.40;;;;;;4938218;29;20028;-81
2021/12/20 15:37:44;;;;;;;10.30;3.45;;;11.10;84.40;;;;;;4938790;29;20024;-80
2021/12/20 15:40:12;;;;;;;12.07;3.55;;;11.10;83.90;;;;;;4937858;29;20020;-82
2021/12/20 15:42:46;;;;;;;17.67;3.90;;;11.10;83.70;;;;;;4939238;29;20124;-81
2021/12/20 15:45:13;;;;;;;13.40;4.00;;;11.10;84.10;;;;;;4940329;29;20509;-78
2021/12/20 15:47:39;;;;;;;9.07;3.38;;;11.20;83.70;;;;;;4939946;29;20059;-79
2021/12/20 15:50:05;;;;;;;12.25;3.72;;;11.10;83.90;;;;;;4941550;29;20035;-80
2021/12/20 15:52:31;;;;;;;12.60;3.60;;;11.10;83.90;;;;;;4938805;29;20027;-80
2021/12/20 15:54:56;;;;;;;11.15;3.53;;;11.10;83.60;;;;;;4943672;29;20502;-82
2021/12/20 15:57:22;;;;;;;13.13;3.53;;;11.10;83.60;;;;;;4943321;29;20115;-80
2021/12/20 15:59:47;;;;;;;11.45;3.88;;;11.10;83.50;;;;;;4955989;29;20464;-78
2021/12/20 16:02:13;;;;;;;11.38;3.60;;;11.10;83.60;;;;;;4939189;29;20492;-82
2021/12/20 16:04:40;;;;;;;12.63;3.75;;;11.10;83.20;;;;;;4939862;29;20024;-80
2021/12/20 16:07:06;;;;;;;10.70;3.67;;;11.00;81.50;;;;;;4941947;29;20027;-81
2021/12/20 16:09:32;;;;;;;11.00;3.50;;;11.00;80.00;;;;;;4944332;29;20047;-81
2021/12/20 16:11:57;;;;;;;11.60;3.65;;;10.90;81.60;;;;;;4942634;29;20397;-81
2021/12/20 16:14:23;;;;;;;10.27;3.47;;;10.90;82.70;;;;;;4941356;29;20498;-80
2021/12/20 16:16:48;;;;;;;17.00;4.32;;;10.90;83.40;;;;;;4943228;29;20024;-80
2021/12/20 16:19:15;;;;;;;12.65;3.97;;;10.90;83.50;;;;;;4942424;29;20110;-81
2021/12/20 16:21:40;;;;;;;12.75;3.72;;;10.90;84.00;;;;;;4942899;29;20031;-82
2021/12/20 16:24:06;;;;;;;13.90;3.67;;;11.00;83.90;;;;;;4944015;29;20038;-80
2021/12/20 16:26:32;;;;;;;16.25;3.67;;;11.00;83.70;;;;;;4959172;29;20027;-81
2021/12/20 16:28:57;;;;;;;18.25;4.10;;;11.10;83.70;;;;;;4942630;29;20028;-79
2021/12/20 16:31:23;;;;;;;17.55;4.55;;;11.10;83.60;;;;;;4943223;29;20066;-81
2021/12/20 16:33:48;;;;;;;21.75;6.32;;;11.10;83.90;;;;;;4942443;29;20028;-80
2021/12/20 16:36:14;;;;;;;25.58;8.55;;;11.10;83.20;;;;;;4941689;29;20676;-81
2021/12/20 16:38:39;;;;;;;29.80;11.43;;;11.10;80.50;;;;;;4943127;29;20036;-80
2021/12/20 16:41:05;;;;;;;26.58;11.20;;;11.00;79.80;;;;;;4941952;29;20126;-82